Hamilton, ND (58238)

4:15 PM CDT on July 28, 2014 (GMT -0500)
Cavalier (K2C8) Elev 892 ft | 48.78 °N, 97.63 °W | Change Station

Current weather conditions updated 20 minutes ago

Partly Cloudy
Partly Cloudy
73 °F
Feels Like 73 °F
N
8
Wind Variable Wind from North

Tomorrow is forecast to be Warmer than today.

Today
High -- | Low -- °F
--% Chance of Precip.
Yesterday
High -- | Low -- °F
Precip. -- in
5:58 AM 9:13 PM
Waxing Crescent, 3% visible
Pressure 30.24 in
Visibility 10.0 miles
Clouds Few 4200 ft
Dew Point 54 °F
Humidity 50%
Rainfall 0.00 in
Snow Depth Not available.
UV 7 out of 12
Pollen 7.50 out of 12
Air Quality Not available.
Flu Activity Not available.
METAR K2C8 282055Z AUTO 01007KT 10SM FEW042 23/12 A3024 RMK AO2

More Conditions Fewer Conditions

Pressure 30.24 in
Visibility 10.0 miles
Clouds Few 4200 ft
Dew Point 54 °F
Humidity 50%
Rainfall 0.00 in
Snow Depth Not available.
UV 7 out of 12
Pollen 7.50 out of 12
Air Quality Not available.
Flu Activity Not available.
METAR K2C8 282055Z AUTO 01007KT 10SM FEW042 23/12 A3024 RMK AO2

More Conditions Fewer Conditions

10-Day Weather Forecast

Almanac

Astronomy

Jul. 28, 2014 Rise Set
Actual Time 5:58 AM CDT 9:13 PM CDT
Civil Twilight 5:20 AM CDT 9:51 PM CDT
Nautical Twilight 4:30 AM CDT 10:41 PM CDT
Astronomical Twilight 3:26 AM CDT 11:44 PM CDT
Moon 7:54 AM CDT 9:39 PM CDT
Length of Visible Light 16h 31m
Length of Day
15h 15m
Tomorrow will be 2m 40s shorter.
Waxing Crescent, 3% of the Moon is Illuminated
Today
Waxing Crescent
Aug 3
First Quarter
Aug 10
Full
Aug 17
Last Quarter
Aug 25
New

Today's Extremes

State Highs State Lows

Community

WunderPhotos

Upload Photos

1,738,492 photos uploaded!

WunderBlogs® & News

Nearby

Snow Depth

Station Depth Elevation
No new snow has been reported.

Earthquake Activity

City Distance Mag. Time & Date
No recent earthquake activity has been reported nearby.
Minimum magnitude displayed is 2.5.

Coastal Water Temperatures

Place Temperature
No Stations Reporting

Nearby Weather Stations

Station Location Temp. Heat Index Dew Point Humidity Wind Precip. Elev Updated Type
Hoople nd, Hoople, ND 72.2 °F 76 °F 56 °F 57% NNW  at  3.0 mph 0.00 in / hr 870 ft 4:01 PM CDT Normal

Show More Stations Show Fewer Stations